sensor_id;sensor_type;location;lat;lon;timestamp;temperature;humidity
3756;DHT22;1893;52.526;13.360;2023-12-14T00:00:43;4.20;99.90
3756;DHT22;1893;52.526;13.360;2023-12-14T00:03:09;4.20;99.90
3756;DHT22;1893;52.526;13.360;2023-12-14T00:05:34;4.30;99.90
3756;DHT22;1893;52.526;13.360;2023-12-14T00:08:01;4.20;99.90
3756;DHT22;1893;52.526;13.360;2023-12-14T00:10:26;4.20;99.90
3756;DHT22;1893;52.526;13.360;2023-12-14T00:12:52;4.30;99.90
3756;DHT22;1893;52.526;13.360;2023-12-14T00:15:19;4.10;99.90
3756;DHT22;1893;52.526;13.360;2023-12-14T00:17:45;4.00;99.90
3756;DHT22;1893;52.526;13.360;2023-12-14T00:20:11;4.10;99.90
3756;DHT22;1893;52.526;13.360;2023-12-14T00:22:36;4.10;99.90
3756;DHT22;1893;52.526;13.360;2023-12-14T00:25:04;4.10;99.90
3756;DHT22;1893;52.526;13.360;2023-12-14T00:27:29;4.10;99.90
3756;DHT22;1893;52.526;13.360;2023-12-14T00:29:55;4.10;99.90
3756;DHT22;1893;52.526;13.360;2023-12-14T00:32:20;4.10;99.90
3756;DHT22;1893;52.526;13.360;2023-12-14T00:34:46;4.10;99.90
3756;DHT22;1893;52.526;13.360;2023-12-14T00:37:12;4.00;99.90
3756;DHT22;1893;52.526;13.360;2023-12-14T00:39:37;4.10;99.90
3756;DHT22;1893;52.526;13.360;2023-12-14T00:42:03;4.10;99.90
3756;DHT22;1893;52.526;13.360;2023-12-14T00:44:29;4.10;99.90
3756;DHT22;1893;52.526;13.360;2023-12-14T00:46:54;4.10;99.90
3756;DHT22;1893;52.526;13.360;2023-12-14T00:49:20;4.10;99.90
3756;DHT22;1893;52.526;13.360;2023-12-14T00:51:45;4.00;99.90
3756;DHT22;1893;52.526;13.360;2023-12-14T00:54:11;3.90;99.90
3756;DHT22;1893;52.526;13.360;2023-12-14T00:56:37;3.90;99.90
3756;DHT22;1893;52.526;13.360;2023-12-14T00:59:02;3.90;99.90
3756;DHT22;1893;52.526;13.360;2023-12-14T01:01:28;3.90;99.90
3756;DHT22;1893;52.526;13.360;2023-12-14T01:03:53;3.90;99.90
3756;DHT22;1893;52.526;13.360;2023-12-14T01:06:19;3.80;99.90
3756;DHT22;1893;52.526;13.360;2023-12-14T01:08:45;3.80;99.90
3756;DHT22;1893;52.526;13.360;2023-12-14T01:11:10;3.80;99.90
3756;DHT22;1893;52.526;13.360;2023-12-14T01:13:36;3.80;99.90
3756;DHT22;1893;52.526;13.360;2023-12-14T01:16:02;3.70;99.90
3756;DHT22;1893;52.526;13.360;2023-12-14T01:18:27;3.70;99.90
3756;DHT22;1893;52.526;13.360;2023-12-14T01:20:53;3.70;99.90
3756;DHT22;1893;52.526;13.360;2023-12-14T01:23:18;3.70;99.90
3756;DHT22;1893;52.526;13.360;2023-12-14T01:25:44;3.60;99.90
3756;DHT22;1893;52.526;13.360;2023-12-14T01:28:09;3.70;99.90
3756;DHT22;1893;52.526;13.360;2023-12-14T01:30:35;3.60;99.90
3756;DHT22;1893;52.526;13.360;2023-12-14T01:33:01;3.70;99.90
3756;DHT22;1893;52.526;13.360;2023-12-14T01:35:26;3.70;99.90
3756;DHT22;1893;52.526;13.360;2023-12-14T01:37:54;3.70;99.90
3756;DHT22;1893;52.526;13.360;2023-12-14T01:40:19;3.80;99.90
3756;DHT22;1893;52.526;13.360;2023-12-14T01:42:45;3.70;99.90
3756;DHT22;1893;52.526;13.360;2023-12-14T01:45:11;3.70;99.90
3756;DHT22;1893;52.526;13.360;2023-12-14T01:47:38;3.70;99.90
3756;DHT22;1893;52.526;13.360;2023-12-14T01:50:04;3.60;99.90
3756;DHT22;1893;52.526;13.360;2023-12-14T01:52:30;3.60;99.90
3756;DHT22;1893;52.526;13.360;2023-12-14T01:54:55;3.70;99.90
3756;DHT22;1893;52.526;13.360;2023-12-14T01:57:24;3.60;99.90
3756;DHT22;1893;52.526;13.360;2023-12-14T01:59:50;3.60;99.90
3756;DHT22;1893;52.526;13.360;2023-12-14T02:02:15;3.50;99.90
3756;DHT22;1893;52.526;13.360;2023-12-14T02:04:41;3.50;99.90
3756;DHT22;1893;52.526;13.360;2023-12-14T02:07:06;3.60;99.90
3756;DHT22;1893;52.526;13.360;2023-12-14T02:09:32;3.60;99.90
3756;DHT22;1893;52.526;13.360;2023-12-14T02:11:58;3.50;99.90
3756;DHT22;1893;52.526;13.360;2023-12-14T02:14:23;3.40;99.90
3756;DHT22;1893;52.526;13.360;2023-12-14T02:16:49;3.40;99.90
3756;DHT22;1893;52.526;13.360;2023-12-14T02:19:15;3.40;99.90
3756;DHT22;1893;52.526;13.360;2023-12-14T02:21:40;3.40;99.90
3756;DHT22;1893;52.526;13.360;2023-12-14T02:24:06;3.40;99.90
3756;DHT22;1893;52.526;13.360;2023-12-14T02:26:32;3.40;99.90
3756;DHT22;1893;52.526;13.360;2023-12-14T02:28:57;3.40;99.90
3756;DHT22;1893;52.526;13.360;2023-12-14T02:31:23;3.40;99.90
3756;DHT22;1893;52.526;13.360;2023-12-14T02:33:49;3.50;99.90
3756;DHT22;1893;52.526;13.360;2023-12-14T02:36:14;3.40;99.90
3756;DHT22;1893;52.526;13.360;2023-12-14T02:38:40;3.40;99.90
3756;DHT22;1893;52.526;13.360;2023-12-14T02:41:05;3.40;99.90
3756;DHT22;1893;52.526;13.360;2023-12-14T02:43:31;3.40;99.90
3756;DHT22;1893;52.526;13.360;2023-12-14T02:45:57;3.50;99.90
3756;DHT22;1893;52.526;13.360;2023-12-14T02:48:27;3.40;99.90
3756;DHT22;1893;52.526;13.360;2023-12-14T02:50:54;3.40;99.90
3756;DHT22;1893;52.526;13.360;2023-12-14T02:53:20;3.40;99.90
3756;DHT22;1893;52.526;13.360;2023-12-14T02:55:46;3.30;99.90
3756;DHT22;1893;52.526;13.360;2023-12-14T02:58:11;3.40;99.90
3756;DHT22;1893;52.526;13.360;2023-12-14T03:00:37;3.30;99.90
3756;DHT22;1893;52.526;13.360;2023-12-14T03:03:02;3.30;99.90
3756;DHT22;1893;52.526;13.360;2023-12-14T03:05:28;3.40;99.90
3756;DHT22;1893;52.526;13.360;2023-12-14T03:07:54;3.60;99.90
3756;DHT22;1893;52.526;13.360;2023-12-14T03:10:19;3.40;99.90
3756;DHT22;1893;52.526;13.360;2023-12-14T03:12:45;3.30;99.90
3756;DHT22;1893;52.526;13.360;2023-12-14T03:15:10;3.30;99.90
3756;DHT22;1893;52.526;13.360;2023-12-14T03:17:36;3.30;99.90
3756;DHT22;1893;52.526;13.360;2023-12-14T03:20:02;3.30;99.90
3756;DHT22;1893;52.526;13.360;2023-12-14T03:22:28;3.40;99.90
3756;DHT22;1893;52.526;13.360;2023-12-14T03:24:54;3.30;99.90
3756;DHT22;1893;52.526;13.360;2023-12-14T03:27:20;3.30;99.90
3756;DHT22;1893;52.526;13.360;2023-12-14T03:29:48;3.40;99.90
3756;DHT22;1893;52.526;13.360;2023-12-14T03:32:13;3.30;99.90
3756;DHT22;1893;52.526;13.360;2023-12-14T03:34:39;3.30;99.90
3756;DHT22;1893;52.526;13.360;2023-12-14T03:37:04;3.30;99.90
3756;DHT22;1893;52.526;13.360;2023-12-14T03:39:30;3.40;99.90
3756;DHT22;1893;52.526;13.360;2023-12-14T03:41:55;3.40;99.90
3756;DHT22;1893;52.526;13.360;2023-12-14T03:44:21;3.30;99.90
3756;DHT22;1893;52.526;13.360;2023-12-14T03:46:47;3.40;99.90
3756;DHT22;1893;52.526;13.360;2023-12-14T03:49:12;3.40;99.90
3756;DHT22;1893;52.526;13.360;2023-12-14T03:51:39;3.40;99.90
3756;DHT22;1893;52.526;13.360;2023-12-14T03:54:05;3.40;99.90
3756;DHT22;1893;52.526;13.360;2023-12-14T03:56:30;3.30;99.90
3756;DHT22;1893;52.526;13.360;2023-12-14T03:58:56;3.30;99.90
3756;DHT22;1893;52.526;13.360;2023-12-14T04:01:23;3.40;99.90
3756;DHT22;1893;52.526;13.360;2023-12-14T04:03:48;3.40;99.90
3756;DHT22;1893;52.526;13.360;2023-12-14T04:06:14;3.30;99.90
3756;DHT22;1893;52.526;13.360;2023-12-14T04:08:41;3.40;99.90
3756;DHT22;1893;52.526;13.360;2023-12-14T04:11:07;3.40;99.90
3756;DHT22;1893;52.526;13.360;2023-12-14T04:13:33;3.40;99.90
3756;DHT22;1893;52.526;13.360;2023-12-14T04:15:59;3.30;99.90
3756;DHT22;1893;52.526;13.360;2023-12-14T04:18:24;3.30;99.90
3756;DHT22;1893;52.526;13.360;2023-12-14T04:20:50;3.30;99.90
3756;DHT22;1893;52.526;13.360;2023-12-14T04:23:16;3.40;99.90
3756;DHT22;1893;52.526;13.360;2023-12-14T04:25:42;3.30;99.90
3756;DHT22;1893;52.526;13.360;2023-12-14T04:28:07;3.40;99.90
3756;DHT22;1893;52.526;13.360;2023-12-14T04:30:33;3.40;99.90
3756;DHT22;1893;52.526;13.360;2023-12-14T04:32:59;3.30;99.90
3756;DHT22;1893;52.526;13.360;2023-12-14T04:35:24;3.30;99.90
3756;DHT22;1893;52.526;13.360;2023-12-14T04:37:50;3.40;99.90
3756;DHT22;1893;52.526;13.360;2023-12-14T04:40:15;3.40;99.90
3756;DHT22;1893;52.526;13.360;2023-12-14T04:42:41;3.30;99.90
3756;DHT22;1893;52.526;13.360;2023-12-14T04:45:07;3.40;99.90
3756;DHT22;1893;52.526;13.360;2023-12-14T04:47:35;3.30;99.90
3756;DHT22;1893;52.526;13.360;2023-12-14T04:50:01;3.40;99.90
3756;DHT22;1893;52.526;13.360;2023-12-14T04:52:27;3.40;99.90
3756;DHT22;1893;52.526;13.360;2023-12-14T04:54:52;3.40;99.90
3756;DHT22;1893;52.526;13.360;2023-12-14T04:57:18;3.40;99.90
3756;DHT22;1893;52.526;13.360;2023-12-14T04:59:44;3.40;99.90
3756;DHT22;1893;52.526;13.360;2023-12-14T05:02:09;3.50;99.90
3756;DHT22;1893;52.526;13.360;2023-12-14T05:04:35;3.40;99.90
3756;DHT22;1893;52.526;13.360;2023-12-14T05:07:01;3.60;99.90
3756;DHT22;1893;52.526;13.360;2023-12-14T05:09:26;3.40;99.90
3756;DHT22;1893;52.526;13.360;2023-12-14T05:11:52;3.50;99.90
3756;DHT22;1893;52.526;13.360;2023-12-14T05:14:18;3.40;99.90
3756;DHT22;1893;52.526;13.360;2023-12-14T05:16:44;3.40;99.90
3756;DHT22;1893;52.526;13.360;2023-12-14T05:19:09;3.40;99.90
3756;DHT22;1893;52.526;13.360;2023-12-14T05:21:35;3.50;99.90
3756;DHT22;1893;52.526;13.360;2023-12-14T05:24:01;3.50;99.90
3756;DHT22;1893;52.526;13.360;2023-12-14T05:26:26;3.40;99.90
3756;DHT22;1893;52.526;13.360;2023-12-14T05:28:52;3.50;99.90
3756;DHT22;1893;52.526;13.360;2023-12-14T05:31:17;3.50;99.90
3756;DHT22;1893;52.526;13.360;2023-12-14T05:33:43;3.40;99.90
3756;DHT22;1893;52.526;13.360;2023-12-14T05:36:09;3.40;99.90
3756;DHT22;1893;52.526;13.360;2023-12-14T05:38:38;3.50;99.90
3756;DHT22;1893;52.526;13.360;2023-12-14T05:41:04;3.50;99.90
3756;DHT22;1893;52.526;13.360;2023-12-14T05:43:30;3.50;99.90
3756;DHT22;1893;52.526;13.360;2023-12-14T05:45:57;3.40;99.90
3756;DHT22;1893;52.526;13.360;2023-12-14T05:48:22;3.40;99.90
3756;DHT22;1893;52.526;13.360;2023-12-14T05:50:48;3.50;99.90
3756;DHT22;1893;52.526;13.360;2023-12-14T05:53:14;3.40;99.90
3756;DHT22;1893;52.526;13.360;2023-12-14T05:55:39;3.40;99.90
3756;DHT22;1893;52.526;13.360;2023-12-14T05:58:06;3.50;99.90
3756;DHT22;1893;52.526;13.360;2023-12-14T06:00:33;3.50;99.90
3756;DHT22;1893;52.526;13.360;2023-12-14T06:03:00;3.50;99.90
3756;DHT22;1893;52.526;13.360;2023-12-14T06:05:25;3.40;99.90
3756;DHT22;1893;52.526;13.360;2023-12-14T06:07:51;3.40;99.90
3756;DHT22;1893;52.526;13.360;2023-12-14T06:10:17;3.40;99.90
3756;DHT22;1893;52.526;13.360;2023-12-14T06:12:43;3.50;99.90
3756;DHT22;1893;52.526;13.360;2023-12-14T06:15:08;3.50;99.90
3756;DHT22;1893;52.526;13.360;2023-12-14T06:17:35;3.50;99.90
3756;DHT22;1893;52.526;13.360;2023-12-14T06:20:03;3.50;99.90
3756;DHT22;1893;52.526;13.360;2023-12-14T06:22:29;3.50;99.90
3756;DHT22;1893;52.526;13.360;2023-12-14T06:24:55;3.50;99.90
3756;DHT22;1893;52.526;13.360;2023-12-14T06:27:20;3.50;99.90
3756;DHT22;1893;52.526;13.360;2023-12-14T06:29:51;3.50;99.90
3756;DHT22;1893;52.526;13.360;2023-12-14T06:32:17;3.50;99.90
3756;DHT22;1893;52.526;13.360;2023-12-14T06:34:43;3.60;99.90
3756;DHT22;1893;52.526;13.360;2023-12-14T06:37:09;3.50;99.90
3756;DHT22;1893;52.526;13.360;2023-12-14T06:39:34;3.50;99.90
3756;DHT22;1893;52.526;13.360;2023-12-14T06:42:01;3.60;99.90
3756;DHT22;1893;52.526;13.360;2023-12-14T06:44:27;3.50;99.90
3756;DHT22;1893;52.526;13.360;2023-12-14T06:46:53;3.50;99.90
3756;DHT22;1893;52.526;13.360;2023-12-14T06:49:20;3.50;99.90
3756;DHT22;1893;52.526;13.360;2023-12-14T06:51:46;3.50;99.90
3756;DHT22;1893;52.526;13.360;2023-12-14T06:54:11;3.50;99.90
3756;DHT22;1893;52.526;13.360;2023-12-14T06:56:37;3.50;99.90
3756;DHT22;1893;52.526;13.360;2023-12-14T06:59:03;3.50;99.90
3756;DHT22;1893;52.526;13.360;2023-12-14T07:01:28;3.50;99.90
3756;DHT22;1893;52.526;13.360;2023-12-14T07:03:54;3.50;99.90
3756;DHT22;1893;52.526;13.360;2023-12-14T07:06:20;3.50;99.90
3756;DHT22;1893;52.526;13.360;2023-12-14T07:08:46;3.40;99.90
3756;DHT22;1893;52.526;13.360;2023-12-14T07:11:13;3.50;99.90
3756;DHT22;1893;52.526;13.360;2023-12-14T07:13:38;3.40;99.90
3756;DHT22;1893;52.526;13.360;2023-12-14T07:16:09;3.50;99.90
3756;DHT22;1893;52.526;13.360;2023-12-14T07:18:35;3.50;99.90
3756;DHT22;1893;52.526;13.360;2023-12-14T07:21:02;3.50;99.90
3756;DHT22;1893;52.526;13.360;2023-12-14T07:23:28;3.50;99.90
3756;DHT22;1893;52.526;13.360;2023-12-14T07:25:53;3.50;99.90
3756;DHT22;1893;52.526;13.360;2023-12-14T07:28:19;3.50;99.90
3756;DHT22;1893;52.526;13.360;2023-12-14T07:30:45;3.50;99.90
3756;DHT22;1893;52.526;13.360;2023-12-14T07:33:12;3.60;99.90
3756;DHT22;1893;52.526;13.360;2023-12-14T07:35:37;3.60;99.90
3756;DHT22;1893;52.526;13.360;2023-12-14T07:38:03;3.60;99.90
3756;DHT22;1893;52.526;13.360;2023-12-14T07:40:29;3.50;99.90
3756;DHT22;1893;52.526;13.360;2023-12-14T07:42:54;3.50;99.90
3756;DHT22;1893;52.526;13.360;2023-12-14T07:45:20;3.50;99.90
3756;DHT22;1893;52.526;13.360;2023-12-14T07:47:46;3.60;99.90
3756;DHT22;1893;52.526;13.360;2023-12-14T07:50:12;3.60;99.90
3756;DHT22;1893;52.526;13.360;2023-12-14T07:52:38;3.60;99.90
3756;DHT22;1893;52.526;13.360;2023-12-14T07:55:05;3.60;99.90
3756;DHT22;1893;52.526;13.360;2023-12-14T07:57:30;3.60;99.90
3756;DHT22;1893;52.526;13.360;2023-12-14T07:59:56;3.60;99.90
3756;DHT22;1893;52.526;13.360;2023-12-14T08:02:22;3.50;99.90
3756;DHT22;1893;52.526;13.360;2023-12-14T08:04:48;3.60;99.90
3756;DHT22;1893;52.526;13.360;2023-12-14T08:07:13;3.60;99.90
3756;DHT22;1893;52.526;13.360;2023-12-14T08:09:39;3.60;99.90
3756;DHT22;1893;52.526;13.360;2023-12-14T08:12:05;3.60;99.90
3756;DHT22;1893;52.526;13.360;2023-12-14T08:14:34;3.60;99.90
3756;DHT22;1893;52.526;13.360;2023-12-14T08:17:01;3.60;99.90
3756;DHT22;1893;52.526;13.360;2023-12-14T08:19:26;3.70;99.90
3756;DHT22;1893;52.526;13.360;2023-12-14T08:21:53;3.70;99.90
3756;DHT22;1893;52.526;13.360;2023-12-14T08:24:18;3.70;99.90
3756;DHT22;1893;52.526;13.360;2023-12-14T08:26:44;3.70;99.90
3756;DHT22;1893;52.526;13.360;2023-12-14T08:29:09;3.70;99.90
3756;DHT22;1893;52.526;13.360;2023-12-14T08:31:35;3.70;99.90
3756;DHT22;1893;52.526;13.360;2023-12-14T08:34:00;3.70;99.90
3756;DHT22;1893;52.526;13.360;2023-12-14T08:36:26;3.80;99.90
3756;DHT22;1893;52.526;13.360;2023-12-14T08:38:52;3.70;99.90
3756;DHT22;1893;52.526;13.360;2023-12-14T08:41:17;3.80;99.90
3756;DHT22;1893;52.526;13.360;2023-12-14T08:43:43;3.80;99.90
3756;DHT22;1893;52.526;13.360;2023-12-14T08:46:09;3.70;99.90
3756;DHT22;1893;52.526;13.360;2023-12-14T08:48:35;3.80;99.90
3756;DHT22;1893;52.526;13.360;2023-12-14T08:51:01;3.70;99.90
3756;DHT22;1893;52.526;13.360;2023-12-14T08:53:26;3.70;99.90
3756;DHT22;1893;52.526;13.360;2023-12-14T08:55:53;3.70;99.90
3756;DHT22;1893;52.526;13.360;2023-12-14T08:58:18;3.80;99.90
3756;DHT22;1893;52.526;13.360;2023-12-14T09:00:44;3.80;99.90
3756;DHT22;1893;52.526;13.360;2023-12-14T09:03:10;3.80;99.90
3756;DHT22;1893;52.526;13.360;2023-12-14T09:05:35;3.80;99.90
3756;DHT22;1893;52.526;13.360;2023-12-14T09:08:02;3.80;99.90
3756;DHT22;1893;52.526;13.360;2023-12-14T09:10:28;3.80;99.90
3756;DHT22;1893;52.526;13.360;2023-12-14T09:12:54;3.80;99.90
3756;DHT22;1893;52.526;13.360;2023-12-14T09:15:19;3.80;99.90
3756;DHT22;1893;52.526;13.360;2023-12-14T09:17:45;3.80;99.90
3756;DHT22;1893;52.526;13.360;2023-12-14T09:20:11;3.80;99.90
3756;DHT22;1893;52.526;13.360;2023-12-14T09:22:37;3.90;99.90
3756;DHT22;1893;52.526;13.360;2023-12-14T09:25:03;3.80;99.90
3756;DHT22;1893;52.526;13.360;2023-12-14T09:27:29;3.80;99.90
3756;DHT22;1893;52.526;13.360;2023-12-14T09:29:55;3.80;99.90
3756;DHT22;1893;52.526;13.360;2023-12-14T09:32:21;3.80;99.90
3756;DHT22;1893;52.526;13.360;2023-12-14T09:34:47;3.90;99.90
3756;DHT22;1893;52.526;13.360;2023-12-14T09:37:12;3.90;99.90
3756;DHT22;1893;52.526;13.360;2023-12-14T09:39:39;3.80;99.90
3756;DHT22;1893;52.526;13.360;2023-12-14T09:42:06;3.80;99.90
3756;DHT22;1893;52.526;13.360;2023-12-14T09:44:33;3.80;99.90
3756;DHT22;1893;52.526;13.360;2023-12-14T09:47:01;3.80;99.90
3756;DHT22;1893;52.526;13.360;2023-12-14T09:49:29;3.90;99.90
3756;DHT22;1893;52.526;13.360;2023-12-14T09:51:56;4.00;99.90
3756;DHT22;1893;52.526;13.360;2023-12-14T09:54:22;3.90;99.90
3756;DHT22;1893;52.526;13.360;2023-12-14T09:56:49;3.80;99.90
3756;DHT22;1893;52.526;13.360;2023-12-14T09:59:15;3.80;99.90
3756;DHT22;1893;52.526;13.360;2023-12-14T10:01:42;3.90;99.90
3756;DHT22;1893;52.526;13.360;2023-12-14T10:04:12;3.90;99.90
3756;DHT22;1893;52.526;13.360;2023-12-14T10:06:39;3.90;99.90
3756;DHT22;1893;52.526;13.360;2023-12-14T10:09:05;3.90;99.90
3756;DHT22;1893;52.526;13.360;2023-12-14T10:11:37;3.80;99.90
3756;DHT22;1893;52.526;13.360;2023-12-14T10:14:13;3.80;99.90
3756;DHT22;1893;52.526;13.360;2023-12-14T10:16:42;3.80;99.90
3756;DHT22;1893;52.526;13.360;2023-12-14T10:19:08;3.90;99.90
3756;DHT22;1893;52.526;13.360;2023-12-14T10:21:35;4.00;99.90
3756;DHT22;1893;52.526;13.360;2023-12-14T10:24:01;4.00;99.90
3756;DHT22;1893;52.526;13.360;2023-12-14T10:26:27;3.90;99.90
3756;DHT22;1893;52.526;13.360;2023-12-14T10:28:53;4.00;99.90
3756;DHT22;1893;52.526;13.360;2023-12-14T10:31:19;4.00;99.90
3756;DHT22;1893;52.526;13.360;2023-12-14T10:33:47;4.00;99.90
3756;DHT22;1893;52.526;13.360;2023-12-14T10:36:15;4.00;99.90
3756;DHT22;1893;52.526;13.360;2023-12-14T10:38:43;4.00;99.90
3756;DHT22;1893;52.526;13.360;2023-12-14T10:41:11;4.10;99.90
3756;DHT22;1893;52.526;13.360;2023-12-14T10:43:39;4.00;99.90
3756;DHT22;1893;52.526;13.360;2023-12-14T10:46:07;4.00;99.90
3756;DHT22;1893;52.526;13.360;2023-12-14T10:48:35;4.00;99.90
3756;DHT22;1893;52.526;13.360;2023-12-14T10:51:02;4.10;99.90
3756;DHT22;1893;52.526;13.360;2023-12-14T10:53:29;4.00;99.90
3756;DHT22;1893;52.526;13.360;2023-12-14T10:55:56;4.00;99.90
3756;DHT22;1893;52.526;13.360;2023-12-14T10:58:24;4.00;99.90
3756;DHT22;1893;52.526;13.360;2023-12-14T11:01:00;4.00;99.90
3756;DHT22;1893;52.526;13.360;2023-12-14T11:03:33;4.00;99.90
3756;DHT22;1893;52.526;13.360;2023-12-14T11:06:00;4.00;99.90
3756;DHT22;1893;52.526;13.360;2023-12-14T11:08:25;4.10;99.90
3756;DHT22;1893;52.526;13.360;2023-12-14T11:11:03;4.00;99.90
3756;DHT22;1893;52.526;13.360;2023-12-14T11:13:35;4.00;99.90
3756;DHT22;1893;52.526;13.360;2023-12-14T11:16:04;4.10;99.90
3756;DHT22;1893;52.526;13.360;2023-12-14T11:18:29;4.10;99.90
3756;DHT22;1893;52.526;13.360;2023-12-14T11:21:00;4.10;99.90
3756;DHT22;1893;52.526;13.360;2023-12-14T11:25:57;4.20;99.90
3756;DHT22;1893;52.526;13.360;2023-12-14T11:28:23;4.10;99.90
3756;DHT22;1893;52.526;13.360;2023-12-14T11:30:49;4.10;99.90
3756;DHT22;1893;52.526;13.360;2023-12-14T11:33:16;4.10;99.90
3756;DHT22;1893;52.526;13.360;2023-12-14T11:35:42;4.10;99.90
3756;DHT22;1893;52.526;13.360;2023-12-14T11:38:08;4.20;99.90
3756;DHT22;1893;52.526;13.360;2023-12-14T11:40:42;4.20;99.90
3756;DHT22;1893;52.526;13.360;2023-12-14T11:43:08;4.10;99.90
3756;DHT22;1893;52.526;13.360;2023-12-14T11:45:38;4.30;99.90
3756;DHT22;1893;52.526;13.360;2023-12-14T11:48:05;4.20;99.90
3756;DHT22;1893;52.526;13.360;2023-12-14T11:50:32;4.20;99.90
3756;DHT22;1893;52.526;13.360;2023-12-14T11:53:02;4.30;99.90
3756;DHT22;1893;52.526;13.360;2023-12-14T11:55:29;4.20;99.90
3756;DHT22;1893;52.526;13.360;2023-12-14T11:57:58;4.20;99.90
3756;DHT22;1893;52.526;13.360;2023-12-14T12:00:25;4.10;99.90
3756;DHT22;1893;52.526;13.360;2023-12-14T12:02:51;4.10;99.90
3756;DHT22;1893;52.526;13.360;2023-12-14T12:05:17;4.10;99.90
3756;DHT22;1893;52.526;13.360;2023-12-14T12:07:46;4.20;99.90
3756;DHT22;1893;52.526;13.360;2023-12-14T12:10:12;4.10;99.90
3756;DHT22;1893;52.526;13.360;2023-12-14T12:12:37;4.10;99.90
3756;DHT22;1893;52.526;13.360;2023-12-14T12:15:04;4.20;99.90
3756;DHT22;1893;52.526;13.360;2023-12-14T12:17:29;4.20;99.90
3756;DHT22;1893;52.526;13.360;2023-12-14T12:19:59;4.20;99.90
3756;DHT22;1893;52.526;13.360;2023-12-14T12:22:24;4.40;99.90
3756;DHT22;1893;52.526;13.360;2023-12-14T12:24:50;4.30;99.90
3756;DHT22;1893;52.526;13.360;2023-12-14T12:27:15;4.30;99.90
3756;DHT22;1893;52.526;13.360;2023-12-14T12:29:41;4.30;99.90
3756;DHT22;1893;52.526;13.360;2023-12-14T12:32:07;4.30;99.90
3756;DHT22;1893;52.526;13.360;2023-12-14T12:34:32;4.30;99.90
3756;DHT22;1893;52.526;13.360;2023-12-14T12:36:58;4.30;99.90
3756;DHT22;1893;52.526;13.360;2023-12-14T12:39:24;4.30;99.90
3756;DHT22;1893;52.526;13.360;2023-12-14T12:41:50;4.30;99.90
3756;DHT22;1893;52.526;13.360;2023-12-14T12:44:16;4.30;99.90
3756;DHT22;1893;52.526;13.360;2023-12-14T12:46:42;4.40;99.90
3756;DHT22;1893;52.526;13.360;2023-12-14T12:49:07;4.30;99.90
3756;DHT22;1893;52.526;13.360;2023-12-14T12:51:33;4.20;99.90
3756;DHT22;1893;52.526;13.360;2023-12-14T12:54:00;4.20;99.90
3756;DHT22;1893;52.526;13.360;2023-12-14T12:56:26;4.20;99.90
3756;DHT22;1893;52.526;13.360;2023-12-14T12:58:53;4.20;99.90
3756;DHT22;1893;52.526;13.360;2023-12-14T13:01:22;4.10;99.90
3756;DHT22;1893;52.526;13.360;2023-12-14T13:03:55;4.20;99.90
3756;DHT22;1893;52.526;13.360;2023-12-14T13:06:23;4.10;99.90
3756;DHT22;1893;52.526;13.360;2023-12-14T13:08:49;4.00;99.90
3756;DHT22;1893;52.526;13.360;2023-12-14T13:11:15;4.10;99.90
3756;DHT22;1893;52.526;13.360;2023-12-14T13:13:40;4.10;99.90
3756;DHT22;1893;52.526;13.360;2023-12-14T13:16:06;4.10;99.90
3756;DHT22;1893;52.526;13.360;2023-12-14T13:18:32;4.00;99.90
3756;DHT22;1893;52.526;13.360;2023-12-14T13:20:58;4.10;99.90
3756;DHT22;1893;52.526;13.360;2023-12-14T13:23:23;4.10;99.90
3756;DHT22;1893;52.526;13.360;2023-12-14T13:25:49;4.10;99.90
3756;DHT22;1893;52.526;13.360;2023-12-14T13:28:16;4.30;99.90
3756;DHT22;1893;52.526;13.360;2023-12-14T13:30:41;4.10;99.90
3756;DHT22;1893;52.526;13.360;2023-12-14T13:33:07;4.00;99.90
3756;DHT22;1893;52.526;13.360;2023-12-14T13:35:35;4.00;99.90
3756;DHT22;1893;52.526;13.360;2023-12-14T13:38:00;3.90;99.90
3756;DHT22;1893;52.526;13.360;2023-12-14T13:40:26;4.00;99.90
3756;DHT22;1893;52.526;13.360;2023-12-14T13:42:51;3.90;99.90
3756;DHT22;1893;52.526;13.360;2023-12-14T13:45:18;3.90;99.90
3756;DHT22;1893;52.526;13.360;2023-12-14T13:47:44;3.90;99.90
3756;DHT22;1893;52.526;13.360;2023-12-14T13:50:09;4.00;99.90
3756;DHT22;1893;52.526;13.360;2023-12-14T13:52:35;4.00;99.90
3756;DHT22;1893;52.526;13.360;2023-12-14T13:55:01;4.00;99.90
3756;DHT22;1893;52.526;13.360;2023-12-14T13:57:26;3.90;99.90
3756;DHT22;1893;52.526;13.360;2023-12-14T13:59:52;3.80;99.90
3756;DHT22;1893;52.526;13.360;2023-12-14T14:02:18;3.80;99.90
3756;DHT22;1893;52.526;13.360;2023-12-14T14:04:44;3.80;99.90
3756;DHT22;1893;52.526;13.360;2023-12-14T14:07:10;3.80;99.90
3756;DHT22;1893;52.526;13.360;2023-12-14T14:09:35;3.90;99.90
3756;DHT22;1893;52.526;13.360;2023-12-14T14:12:01;3.90;99.90
3756;DHT22;1893;52.526;13.360;2023-12-14T14:14:26;3.80;99.90
3756;DHT22;1893;52.526;13.360;2023-12-14T14:16:52;3.80;99.90
3756;DHT22;1893;52.526;13.360;2023-12-14T14:19:18;3.80;99.90
3756;DHT22;1893;52.526;13.360;2023-12-14T14:21:43;3.80;99.90
3756;DHT22;1893;52.526;13.360;2023-12-14T14:24:09;3.80;99.90
3756;DHT22;1893;52.526;13.360;2023-12-14T14:26:35;3.80;99.90
3756;DHT22;1893;52.526;13.360;2023-12-14T14:29:00;3.80;99.90
3756;DHT22;1893;52.526;13.360;2023-12-14T14:31:28;3.90;99.90
3756;DHT22;1893;52.526;13.360;2023-12-14T14:34:01;3.90;99.90
3756;DHT22;1893;52.526;13.360;2023-12-14T14:36:26;3.90;99.90
3756;DHT22;1893;52.526;13.360;2023-12-14T14:38:52;3.80;99.90
3756;DHT22;1893;52.526;13.360;2023-12-14T14:41:20;3.80;99.90
3756;DHT22;1893;52.526;13.360;2023-12-14T14:43:46;3.80;99.90
3756;DHT22;1893;52.526;13.360;2023-12-14T14:46:12;3.80;99.90
3756;DHT22;1893;52.526;13.360;2023-12-14T14:48:38;3.80;99.90
3756;DHT22;1893;52.526;13.360;2023-12-14T14:51:04;3.80;99.90
3756;DHT22;1893;52.526;13.360;2023-12-14T14:53:30;3.80;99.90
3756;DHT22;1893;52.526;13.360;2023-12-14T14:55:55;3.70;99.90
3756;DHT22;1893;52.526;13.360;2023-12-14T14:58:22;3.80;99.90
3756;DHT22;1893;52.526;13.360;2023-12-14T15:00:47;3.90;99.90
3756;DHT22;1893;52.526;13.360;2023-12-14T15:03:14;3.90;99.90
3756;DHT22;1893;52.526;13.360;2023-12-14T15:05:40;3.90;99.90
3756;DHT22;1893;52.526;13.360;2023-12-14T15:08:06;3.80;99.90
3756;DHT22;1893;52.526;13.360;2023-12-14T15:10:34;3.80;99.90
3756;DHT22;1893;52.526;13.360;2023-12-14T15:13:00;3.80;99.90
3756;DHT22;1893;52.526;13.360;2023-12-14T15:15:26;3.80;99.90
3756;DHT22;1893;52.526;13.360;2023-12-14T15:17:51;3.90;99.90
3756;DHT22;1893;52.526;13.360;2023-12-14T15:20:17;3.80;99.90
3756;DHT22;1893;52.526;13.360;2023-12-14T15:22:43;3.90;99.90
3756;DHT22;1893;52.526;13.360;2023-12-14T15:25:09;3.90;99.90
3756;DHT22;1893;52.526;13.360;2023-12-14T15:27:34;3.90;99.90
3756;DHT22;1893;52.526;13.360;2023-12-14T15:30:01;3.80;99.90
3756;DHT22;1893;52.526;13.360;2023-12-14T15:32:26;3.80;99.90
3756;DHT22;1893;52.526;13.360;2023-12-14T15:34:52;3.90;99.90
3756;DHT22;1893;52.526;13.360;2023-12-14T15:37:17;3.90;99.90
3756;DHT22;1893;52.526;13.360;2023-12-14T15:39:43;3.90;99.90
3756;DHT22;1893;52.526;13.360;2023-12-14T15:42:14;3.90;99.90
3756;DHT22;1893;52.526;13.360;2023-12-14T15:44:40;3.90;99.90
3756;DHT22;1893;52.526;13.360;2023-12-14T15:47:06;3.90;99.90
3756;DHT22;1893;52.526;13.360;2023-12-14T15:49:31;3.90;99.90
3756;DHT22;1893;52.526;13.360;2023-12-14T15:51:57;3.90;99.90
3756;DHT22;1893;52.526;13.360;2023-12-14T15:54:23;3.90;99.90
3756;DHT22;1893;52.526;13.360;2023-12-14T15:56:48;3.90;99.90